createdAt,value
2023-12-09T00:02:51.460Z,73.46
2023-12-09T00:05:54.778Z,73.49
2023-12-09T00:08:57.866Z,73.46
2023-12-09T00:12:00.933Z,73.52
2023-12-09T00:15:05.616Z,73.52
2023-12-09T00:18:09.228Z,73.49
2023-12-09T00:21:12.769Z,73.38
2023-12-09T00:24:15.877Z,73.43
2023-12-09T00:27:18.934Z,73.38
2023-12-09T00:30:22.453Z,73.37
2023-12-09T00:33:25.829Z,73.30
2023-12-09T00:36:29.035Z,73.44
2023-12-09T00:39:32.218Z,73.49
2023-12-09T00:42:35.326Z,73.53
2023-12-09T00:45:38.585Z,73.39
2023-12-09T00:48:41.744Z,73.41
2023-12-09T00:51:44.835Z,73.37
2023-12-09T00:54:48.292Z,73.38
2023-12-09T00:57:51.433Z,73.36
2023-12-09T01:00:54.498Z,73.40
2023-12-09T01:03:57.698Z,73.52
2023-12-09T01:07:00.862Z,73.37
2023-12-09T01:10:04.986Z,73.40
2023-12-09T01:13:08.082Z,73.40
2023-12-09T01:16:11.057Z,73.59
2023-12-09T01:19:14.145Z,73.51
2023-12-09T01:22:17.178Z,73.38
2023-12-09T01:25:20.212Z,73.62
2023-12-09T01:28:23.688Z,73.52
2023-12-09T01:31:26.810Z,73.69
2023-12-09T01:34:29.937Z,73.69
2023-12-09T01:37:32.954Z,73.43
2023-12-09T01:40:35.921Z,73.60
2023-12-09T01:43:38.896Z,73.69
2023-12-09T01:46:42.734Z,73.64
2023-12-09T01:49:46.320Z,73.66
2023-12-09T01:52:49.488Z,73.69
2023-12-09T01:55:52.600Z,73.57
2023-12-09T01:58:55.715Z,73.70
2023-12-09T02:01:59.465Z,73.66
2023-12-09T02:05:03.822Z,73.66
2023-12-09T02:08:06.977Z,73.62
2023-12-09T02:11:29.736Z,73.57
2023-12-09T02:15:19.217Z,73.65
2023-12-09T02:18:23.767Z,73.45
2023-12-09T02:21:27.795Z,73.61
2023-12-09T02:24:31.587Z,73.51
2023-12-09T02:27:53.501Z,73.52
2023-12-09T02:30:59.754Z,73.60
2023-12-09T02:34:04.501Z,73.49
2023-12-09T02:37:09.527Z,73.45
2023-12-09T02:40:14.927Z,73.50
2023-12-09T02:43:18.128Z,73.52
2023-12-09T02:46:21.118Z,73.45
2023-12-09T02:49:24.994Z,73.49
2023-12-09T02:52:28.438Z,73.52
2023-12-09T02:55:31.772Z,73.46
2023-12-09T02:58:34.791Z,73.54
2023-12-09T03:01:37.802Z,73.59
2023-12-09T03:04:40.901Z,73.65
2023-12-09T03:07:43.891Z,73.57
2023-12-09T03:10:46.917Z,73.56
2023-12-09T03:13:49.921Z,73.67
2023-12-09T03:16:52.865Z,73.65
2023-12-09T03:19:56.378Z,73.68
2023-12-09T03:22:59.432Z,73.68
2023-12-09T03:26:02.386Z,73.80
2023-12-09T03:29:05.765Z,73.74
2023-12-09T03:32:08.798Z,73.95
2023-12-09T03:35:13.499Z,73.91
2023-12-09T03:38:16.649Z,73.82
2023-12-09T03:41:21.231Z,73.87
2023-12-09T03:44:25.413Z,73.78
2023-12-09T03:47:29.798Z,73.90
2023-12-09T03:50:33.150Z,73.96
2023-12-09T03:53:36.190Z,73.96
2023-12-09T03:56:39.242Z,73.95
2023-12-09T03:59:42.394Z,73.94
2023-12-09T04:02:45.493Z,74.01
2023-12-09T04:05:48.671Z,74.07
2023-12-09T04:08:51.665Z,74.18
2023-12-09T04:11:54.910Z,74.19
2023-12-09T04:14:58.612Z,74.37
2023-12-09T04:18:01.791Z,74.35
2023-12-09T04:21:05.267Z,74.39
2023-12-09T04:24:08.546Z,74.41
2023-12-09T04:27:11.505Z,74.67
2023-12-09T04:30:14.815Z,74.62
2023-12-09T04:33:17.929Z,74.68
2023-12-09T04:36:21.034Z,74.58
2023-12-09T04:39:24.120Z,74.70
2023-12-09T04:42:27.589Z,74.79
2023-12-09T04:45:30.883Z,74.67
2023-12-09T04:48:34.045Z,74.66
2023-12-09T04:51:37.272Z,74.80
2023-12-09T04:54:40.367Z,74.79
2023-12-09T04:57:43.443Z,74.78
2023-12-09T05:00:46.537Z,74.82
2023-12-09T05:03:49.687Z,74.74
2023-12-09T05:06:52.841Z,74.85
2023-12-09T05:09:55.996Z,74.80
2023-12-09T05:12:59.044Z,74.73
2023-12-09T05:16:02.103Z,74.79
2023-12-09T05:19:06.981Z,74.68
2023-12-09T05:22:10.082Z,74.71
2023-12-09T05:25:13.186Z,74.72
2023-12-09T05:28:16.377Z,74.73
2023-12-09T05:31:19.934Z,74.71
2023-12-09T05:34:23.120Z,74.67
2023-12-09T05:37:26.190Z,74.72
2023-12-09T05:40:30.855Z,74.58
2023-12-09T05:43:37.024Z,74.63
2023-12-09T05:46:41.416Z,74.61
2023-12-09T05:49:44.577Z,74.57
2023-12-09T05:52:47.642Z,74.51
2023-12-09T05:55:50.682Z,74.68
2023-12-09T05:58:53.898Z,74.71
2023-12-09T06:01:57.319Z,74.57
2023-12-09T06:05:00.359Z,74.70
2023-12-09T06:08:03.613Z,74.70
2023-12-09T06:11:06.815Z,74.79
2023-12-09T06:14:09.887Z,74.80
2023-12-09T06:17:12.967Z,74.78
2023-12-09T06:20:16.204Z,74.88
2023-12-09T06:23:19.344Z,74.63
2023-12-09T06:26:22.431Z,74.73
2023-12-09T06:29:25.509Z,74.76
2023-12-09T06:32:28.838Z,74.79
2023-12-09T06:35:32.001Z,74.80
2023-12-09T06:38:40.707Z,74.88
2023-12-09T06:41:43.856Z,74.83
2023-12-09T06:44:47.091Z,74.74
2023-12-09T06:47:50.384Z,74.87
2023-12-09T06:50:53.590Z,75.00
2023-12-09T06:53:57.546Z,74.81
2023-12-09T06:57:00.731Z,74.94
2023-12-09T07:00:09.421Z,74.75
2023-12-09T07:03:12.997Z,74.92
2023-12-09T07:06:18.485Z,74.94
2023-12-09T07:09:21.971Z,74.92
2023-12-09T07:12:25.359Z,74.94
2023-12-09T07:15:28.846Z,74.94
2023-12-09T07:18:31.986Z,74.89
2023-12-09T07:21:35.242Z,74.98
2023-12-09T07:24:38.457Z,74.96
2023-12-09T07:27:41.526Z,74.92
2023-12-09T07:30:44.581Z,74.97
2023-12-09T07:33:47.824Z,74.90
2023-12-09T07:36:50.931Z,74.86
2023-12-09T07:39:53.919Z,74.84
2023-12-09T07:42:56.894Z,74.80
2023-12-09T07:45:59.931Z,74.79
2023-12-09T07:49:03.602Z,74.79
2023-12-09T07:52:06.957Z,74.71
2023-12-09T07:55:10.474Z,74.77
2023-12-09T07:58:13.610Z,74.84
2023-12-09T08:01:16.722Z,74.85
2023-12-09T08:04:19.885Z,74.69
2023-12-09T08:07:23.133Z,74.72
2023-12-09T08:10:26.172Z,74.62
2023-12-09T08:13:29.200Z,74.64
2023-12-09T08:16:32.234Z,74.54
2023-12-09T08:19:35.284Z,74.45
2023-12-09T08:22:40.219Z,74.53
2023-12-09T08:25:44.743Z,74.51
2023-12-09T08:28:47.900Z,74.39
2023-12-09T08:31:50.985Z,74.66
2023-12-09T08:35:02.851Z,74.59
2023-12-09T08:38:10.613Z,74.43
2023-12-09T08:41:13.763Z,74.33
2023-12-09T08:44:16.879Z,74.37
2023-12-09T08:47:20.066Z,74.35
2023-12-09T08:50:25.460Z,74.26
2023-12-09T08:53:29.216Z,74.22
2023-12-09T08:56:32.321Z,74.34
2023-12-09T08:59:36.952Z,74.34
2023-12-09T09:02:40.108Z,74.41
2023-12-09T09:05:43.968Z,74.23
2023-12-09T09:08:47.123Z,74.10
2023-12-09T09:11:50.633Z,74.11
2023-12-09T09:14:56.917Z,74.07
2023-12-09T09:18:00.729Z,74.04
2023-12-09T09:21:04.099Z,74.17
2023-12-09T09:24:09.181Z,74.16
2023-12-09T09:27:12.360Z,74.21
2023-12-09T09:30:16.018Z,74.31
2023-12-09T09:33:19.473Z,74.24
2023-12-09T09:36:24.277Z,74.30
2023-12-09T09:39:28.092Z,74.32
2023-12-09T09:42:45.576Z,74.31
2023-12-09T09:45:54.774Z,74.33
2023-12-09T09:49:03.812Z,74.33
2023-12-09T09:52:10.844Z,74.32
2023-12-09T09:55:16.387Z,74.39
2023-12-09T09:58:19.465Z,74.30
2023-12-09T10:01:24.827Z,74.16
2023-12-09T10:04:28.191Z,74.19
2023-12-09T10:07:31.958Z,74.27
2023-12-09T10:10:36.597Z,74.23
2023-12-09T10:13:39.853Z,74.24
2023-12-09T10:16:43.734Z,74.32
2023-12-09T10:19:46.736Z,74.34
2023-12-09T10:22:49.839Z,74.28
2023-12-09T10:25:53.068Z,74.29
2023-12-09T10:28:56.426Z,74.34
2023-12-09T10:32:02.365Z,74.31
2023-12-09T10:35:06.641Z,74.22
2023-12-09T10:38:10.299Z,74.24
2023-12-09T10:41:14.598Z,74.22
2023-12-09T10:44:18.391Z,74.28
2023-12-09T10:47:21.393Z,74.23
2023-12-09T10:50:24.802Z,74.14
2023-12-09T10:53:27.982Z,74.25
2023-12-09T10:56:31.720Z,74.27
2023-12-09T10:59:35.815Z,74.34
2023-12-09T11:02:42.564Z,74.45
2023-12-09T11:05:56.058Z,74.32
2023-12-09T11:08:59.297Z,74.34
2023-12-09T11:12:02.408Z,74.32
2023-12-09T11:15:14.625Z,74.31
2023-12-09T11:18:19.053Z,74.12
2023-12-09T11:21:27.256Z,74.29
2023-12-09T11:24:31.732Z,74.38
2023-12-09T11:27:35.997Z,74.44
2023-12-09T11:30:45.475Z,74.30
2023-12-09T11:33:50.401Z,74.28
2023-12-09T11:36:55.128Z,74.25
2023-12-09T11:39:59.165Z,74.27
2023-12-09T11:43:04.796Z,74.31
2023-12-09T11:46:07.843Z,74.28
2023-12-09T11:49:11.172Z,74.32
2023-12-09T11:52:15.235Z,74.41
2023-12-09T11:55:18.896Z,74.43
2023-12-09T11:58:21.894Z,74.43
2023-12-09T12:01:26.617Z,74.41
2023-12-09T12:04:36.827Z,74.43
2023-12-09T12:07:41.913Z,74.44
2023-12-09T12:10:44.922Z,74.39
2023-12-09T12:13:48.883Z,74.39
2023-12-09T12:16:52.032Z,74.35
2023-12-09T12:19:55.111Z,74.45
2023-12-09T12:22:58.546Z,74.38
2023-12-09T12:26:02.121Z,74.28
2023-12-09T12:29:05.452Z,74.31
2023-12-09T12:32:09.130Z,74.27
2023-12-09T12:35:12.499Z,74.40
2023-12-09T12:38:15.683Z,74.40
2023-12-09T12:41:19.092Z,74.39
2023-12-09T12:44:22.385Z,74.27
2023-12-09T12:47:25.541Z,74.43
2023-12-09T12:50:30.085Z,74.33
2023-12-09T12:53:33.341Z,74.35
2023-12-09T12:56:36.895Z,74.28
2023-12-09T12:59:43.074Z,74.43
2023-12-09T13:02:46.419Z,74.36
2023-12-09T13:05:49.606Z,74.42
2023-12-09T13:08:52.757Z,74.50
2023-12-09T13:11:55.870Z,74.50
2023-12-09T13:14:58.969Z,74.47
2023-12-09T13:18:02.760Z,74.53
2023-12-09T13:21:07.360Z,74.43
2023-12-09T13:24:12.233Z,74.56
2023-12-09T13:27:15.537Z,74.54
2023-12-09T13:30:19.036Z,74.62
2023-12-09T13:33:22.924Z,74.65
2023-12-09T13:36:26.351Z,74.55
2023-12-09T13:39:29.669Z,74.62
2023-12-09T13:42:33.358Z,74.58
2023-12-09T13:45:37.536Z,74.67
2023-12-09T13:48:41.089Z,74.53
2023-12-09T13:51:44.391Z,74.47
2023-12-09T13:54:48.526Z,74.45
2023-12-09T13:57:51.699Z,74.53
2023-12-09T14:00:55.093Z,74.63
2023-12-09T14:03:58.452Z,74.77
2023-12-09T14:07:02.038Z,74.70
2023-12-09T14:10:06.471Z,74.81
2023-12-09T14:13:09.692Z,74.84
2023-12-09T14:16:13.996Z,74.99
2023-12-09T14:19:17.339Z,74.76
2023-12-09T14:22:20.933Z,74.78
2023-12-09T14:25:24.317Z,74.87
2023-12-09T14:28:27.504Z,74.83
2023-12-09T14:31:30.821Z,74.80
2023-12-09T14:34:34.331Z,74.87
2023-12-09T14:37:37.738Z,74.82
2023-12-09T14:40:41.729Z,74.85
2023-12-09T14:43:47.025Z,74.75
2023-12-09T14:46:51.834Z,74.78
2023-12-09T14:49:55.198Z,74.82
2023-12-09T14:52:58.413Z,74.82
2023-12-09T14:56:02.160Z,74.85
2023-12-09T14:59:06.545Z,74.83
2023-12-09T15:02:09.773Z,74.81
2023-12-09T15:05:13.062Z,74.81
2023-12-09T15:08:16.258Z,74.67
2023-12-09T15:11:19.639Z,74.71
2023-12-09T15:14:22.946Z,74.76
2023-12-09T15:17:26.550Z,74.82
2023-12-09T15:20:29.859Z,74.85
2023-12-09T15:23:33.002Z,74.85
2023-12-09T15:26:36.563Z,74.96
2023-12-09T15:29:40.404Z,74.76
2023-12-09T15:32:45.549Z,74.76
2023-12-09T15:35:48.993Z,74.68
2023-12-09T15:38:52.193Z,74.70
2023-12-09T15:41:55.572Z,74.76
2023-12-09T15:44:58.913Z,74.75
2023-12-09T15:48:02.454Z,74.78
2023-12-09T15:51:08.314Z,74.92
2023-12-09T15:54:11.603Z,74.91
2023-12-09T15:57:14.995Z,74.94
2023-12-09T16:00:18.537Z,74.95
2023-12-09T16:03:21.994Z,74.95
2023-12-09T16:06:25.273Z,74.88
2023-12-09T16:09:28.589Z,74.84
2023-12-09T16:12:32.740Z,74.89
2023-12-09T16:15:36.141Z,75.02
2023-12-09T16:18:40.360Z,75.04
2023-12-09T16:21:44.267Z,74.89
2023-12-09T16:24:49.166Z,74.79
2023-12-09T16:27:52.432Z,74.87
2023-12-09T16:30:58.369Z,74.87
2023-12-09T16:34:03.960Z,74.82
2023-12-09T16:37:07.317Z,74.89
2023-12-09T16:40:13.137Z,74.99
2023-12-09T16:43:16.329Z,74.99
2023-12-09T16:46:19.945Z,75.04
2023-12-09T16:49:23.752Z,75.15
2023-12-09T16:52:27.322Z,75.06
2023-12-09T16:55:30.799Z,75.07
2023-12-09T16:58:34.165Z,75.02
2023-12-09T17:01:41.375Z,74.80
2023-12-09T17:04:44.644Z,74.95
2023-12-09T17:07:47.821Z,74.92
2023-12-09T17:10:50.868Z,74.70
2023-12-09T17:13:55.430Z,74.81
2023-12-09T17:17:00.777Z,74.63
2023-12-09T17:20:07.074Z,74.69
2023-12-09T17:23:10.821Z,74.69
2023-12-09T17:26:15.051Z,74.67
2023-12-09T17:29:18.337Z,74.68
2023-12-09T17:32:21.410Z,74.72
2023-12-09T17:35:29.920Z,74.70
2023-12-09T17:38:33.424Z,74.51
2023-12-09T17:41:36.591Z,74.64
2023-12-09T17:44:40.136Z,75.41
2023-12-09T17:47:43.369Z,75.70
2023-12-09T17:50:46.914Z,75.26
2023-12-09T17:53:50.032Z,75.12
2023-12-09T17:56:53.095Z,74.89
2023-12-09T17:59:56.510Z,74.88
2023-12-09T18:02:59.656Z,74.93
2023-12-09T18:06:04.669Z,74.84
2023-12-09T18:09:08.116Z,74.81
2023-12-09T18:12:11.523Z,75.13
2023-12-09T18:15:14.794Z,75.29
2023-12-09T18:18:18.816Z,75.21
2023-12-09T18:21:24.987Z,75.07
2023-12-09T18:24:28.498Z,75.04
2023-12-09T18:27:32.831Z,75.06
2023-12-09T18:30:36.371Z,75.06
2023-12-09T18:33:40.268Z,75.04
2023-12-09T18:36:43.591Z,75.08
2023-12-09T18:39:46.817Z,74.98
2023-12-09T18:42:52.268Z,75.04
2023-12-09T18:45:55.955Z,75.04
2023-12-09T18:49:00.544Z,75.05
2023-12-09T18:52:05.315Z,75.01
2023-12-09T18:55:08.836Z,74.97
2023-12-09T18:58:13.345Z,75.00
2023-12-09T19:01:16.743Z,75.06
2023-12-09T19:04:19.916Z,74.93
2023-12-09T19:07:24.991Z,74.94
2023-12-09T19:10:29.151Z,74.96
2023-12-09T19:13:32.804Z,74.98
2023-12-09T19:16:36.608Z,75.01
2023-12-09T19:19:39.936Z,75.00
2023-12-09T19:22:43.954Z,75.05
2023-12-09T19:25:47.342Z,75.11
2023-12-09T19:28:50.618Z,75.09
2023-12-09T19:31:53.784Z,75.14
2023-12-09T19:34:57.185Z,75.21
2023-12-09T19:38:00.267Z,75.32
2023-12-09T19:41:03.829Z,75.23
2023-12-09T19:44:07.138Z,75.22
2023-12-09T19:47:10.419Z,75.30
2023-12-09T19:50:13.832Z,75.38
2023-12-09T19:53:16.940Z,75.30
2023-12-09T19:56:20.199Z,75.15
2023-12-09T19:59:23.476Z,75.17
2023-12-09T20:02:26.875Z,75.24
2023-12-09T20:05:30.072Z,75.13
2023-12-09T20:08:33.347Z,75.28
2023-12-09T20:11:36.421Z,75.27
2023-12-09T20:14:39.756Z,75.21
2023-12-09T20:17:42.959Z,75.23
2023-12-09T20:20:46.106Z,75.29
2023-12-09T20:23:49.376Z,75.30
2023-12-09T20:26:52.587Z,75.19
2023-12-09T20:29:55.979Z,75.12
2023-12-09T20:32:59.199Z,75.15
2023-12-09T20:36:03.405Z,75.10
2023-12-09T20:39:06.648Z,75.38
2023-12-09T20:42:09.793Z,75.31
2023-12-09T20:45:13.120Z,75.21
2023-12-09T20:48:17.275Z,75.33
2023-12-09T20:51:22.773Z,75.26
2023-12-09T20:54:25.897Z,75.39
2023-12-09T20:57:28.982Z,75.31
2023-12-09T21:00:32.148Z,75.37
2023-12-09T21:03:35.334Z,75.19
2023-12-09T21:06:38.585Z,75.28
2023-12-09T21:09:41.936Z,75.24
2023-12-09T21:12:45.396Z,75.18
2023-12-09T21:15:48.583Z,75.16
2023-12-09T21:18:52.145Z,75.11
2023-12-09T21:21:56.284Z,74.97
2023-12-09T21:24:59.981Z,74.80
2023-12-09T21:28:04.852Z,74.75
2023-12-09T21:31:15.301Z,74.77
2023-12-09T21:34:18.937Z,74.74
2023-12-09T21:37:22.131Z,74.64
2023-12-09T21:40:25.307Z,74.57
2023-12-09T21:43:28.395Z,74.41
2023-12-09T21:46:31.698Z,74.26
2023-12-09T21:49:34.807Z,74.21
2023-12-09T21:52:38.053Z,74.04
2023-12-09T21:55:41.724Z,73.99
2023-12-09T21:58:44.837Z,73.83
2023-12-09T22:01:50.534Z,73.75
2023-12-09T22:04:56.013Z,73.76
2023-12-09T22:07:59.133Z,73.73
2023-12-09T22:11:02.458Z,73.71
2023-12-09T22:14:05.508Z,73.65
2023-12-09T22:17:08.738Z,73.66
2023-12-09T22:20:12.173Z,73.90
2023-12-09T22:23:15.251Z,73.91
2023-12-09T22:26:18.308Z,73.91
2023-12-09T22:29:21.624Z,73.80
2023-12-09T22:32:26.003Z,73.65
2023-12-09T22:35:33.106Z,73.74
2023-12-09T22:38:36.319Z,73.62
2023-12-09T22:41:40.033Z,73.45
2023-12-09T22:44:43.914Z,73.48
2023-12-09T22:47:47.188Z,73.58
2023-12-09T22:50:51.984Z,73.46
2023-12-09T22:53:56.513Z,73.29
2023-12-09T22:56:59.745Z,73.37
2023-12-09T23:00:09.799Z,73.46
2023-12-09T23:03:13.159Z,73.35
2023-12-09T23:06:17.072Z,73.24
2023-12-09T23:09:20.246Z,73.24
2023-12-09T23:12:23.425Z,73.18
2023-12-09T23:15:26.571Z,73.19
2023-12-09T23:18:30.384Z,73.04
2023-12-09T23:21:33.657Z,73.07
2023-12-09T23:24:37.804Z,73.08
2023-12-09T23:27:41.021Z,73.05
2023-12-09T23:30:44.198Z,73.11
2023-12-09T23:33:47.360Z,72.99
2023-12-09T23:36:50.657Z,73.13
2023-12-09T23:39:53.869Z,73.02
2023-12-09T23:42:57.013Z,72.94
2023-12-09T23:46:00.182Z,72.75
2023-12-09T23:49:03.411Z,72.62
2023-12-09T23:52:06.647Z,72.48
2023-12-09T23:55:09.827Z,72.26
2023-12-09T23:58:13.007Z,72.16
